Time;durP1;ratioP1;P1;durP2;ratioP2;P2;SDS_P1;SDS_P2;PMS_P1;PMS_P2;Temp;Humidity;BMP_temperature;BMP_pressure;BME280_temperature;BME280_humidity;BME280_pressure;Samples;Min_cycle;Max_cycle;Signal;HPM_P1;HPM_P2
2021/06/28 00:02:13;;;;;;;9.35;7.78;;;18.30;99.90;;;;;;5089977;28;20031;-41
2021/06/28 00:04:39;;;;;;;8.57;7.07;;;18.20;99.90;;;;;;5089243;28;20027;-41
2021/06/28 00:07:06;;;;;;;12.43;7.15;;;18.20;99.90;;;;;;5085372;28;20047;-41
2021/06/28 00:09:31;;;;;;;9.50;7.35;;;18.30;99.90;;;;;;5089685;28;20466;-42
2021/06/28 00:11:56;;;;;;;7.90;6.93;;;18.30;99.90;;;;;;5089071;28;20031;-42
2021/06/28 00:14:22;;;;;;;7.78;6.97;;;18.30;99.90;;;;;;5094605;28;20076;-41
2021/06/28 00:16:47;;;;;;;10.55;7.38;;;18.40;99.90;;;;;;5108278;28;20023;-40
2021/06/28 00:19:13;;;;;;;8.48;7.63;;;18.30;99.90;;;;;;5069804;28;20033;-42
2021/06/28 00:21:39;;;;;;;11.75;7.25;;;18.30;99.90;;;;;;5069782;28;20063;-41
2021/06/28 00:24:07;;;;;;;6.97;6.28;;;18.30;99.90;;;;;;5087346;28;20530;-41
2021/06/28 00:26:33;;;;;;;7.80;6.65;;;18.30;99.90;;;;;;5086641;28;20032;-41
2021/06/28 00:28:58;;;;;;;7.80;6.97;;;18.30;99.90;;;;;;5069044;28;20031;-42
2021/06/28 00:31:24;;;;;;;7.93;7.00;;;18.30;99.90;;;;;;5082409;28;20209;-42
2021/06/28 00:33:49;;;;;;;7.75;6.95;;;18.30;99.90;;;;;;5090306;28;20384;-43
2021/06/28 00:36:15;;;;;;;10.82;7.30;;;18.30;99.90;;;;;;5087066;28;20058;-41
2021/06/28 00:38:41;;;;;;;8.43;7.47;;;18.30;99.90;;;;;;5095483;28;20050;-41
2021/06/28 00:41:07;;;;;;;8.23;7.43;;;18.30;99.90;;;;;;5107638;28;20027;-42
2021/06/28 00:43:33;;;;;;;10.45;7.95;;;18.30;99.90;;;;;;5079841;28;20031;-41
2021/06/28 00:45:58;;;;;;;8.45;7.55;;;18.30;99.90;;;;;;5088748;28;20016;-41
2021/06/28 00:48:24;;;;;;;8.07;7.28;;;18.30;99.90;;;;;;5090068;28;20454;-41
2021/06/28 00:50:52;;;;;;;7.88;7.07;;;18.30;99.90;;;;;;5088450;28;20069;-41
2021/06/28 00:53:21;;;;;;;7.40;6.70;;;18.40;99.90;;;;;;5088675;28;20027;-41
2021/06/28 00:55:46;;;;;;;8.60;7.70;;;18.40;99.90;;;;;;5082485;28;20024;-41
2021/06/28 00:58:12;;;;;;;7.32;6.63;;;18.40;99.90;;;;;;5081684;28;20363;-41
2021/06/28 01:00:38;;;;;;;9.85;7.00;;;18.40;99.90;;;;;;5089123;28;20528;-41
2021/06/28 01:03:05;;;;;;;7.50;6.78;;;18.40;99.90;;;;;;5084973;28;20070;-42
2021/06/28 01:05:33;;;;;;;8.32;7.40;;;18.40;99.90;;;;;;5088542;28;20032;-41
2021/06/28 01:07:59;;;;;;;7.03;6.32;;;18.50;99.90;;;;;;5085401;28;20105;-41
2021/06/28 01:10:25;;;;;;;7.78;6.75;;;18.40;99.90;;;;;;5088765;28;20055;-41
2021/06/28 01:12:51;;;;;;;7.90;7.10;;;18.40;99.90;;;;;;5087847;28;20588;-41
2021/06/28 01:15:18;;;;;;;7.75;6.95;;;18.50;99.90;;;;;;5088553;28;20374;-41
2021/06/28 01:17:44;;;;;;;7.90;7.13;;;18.50;99.90;;;;;;5080189;28;20425;-41
2021/06/28 01:20:29;;;;;;;8.27;7.38;;;18.50;99.90;;;;;;5087042;28;20073;-41
2021/06/28 01:22:58;;;;;;;9.27;6.68;;;18.50;99.90;;;;;;5082959;28;20031;-42
2021/06/28 01:25:27;;;;;;;7.80;7.00;;;18.50;99.90;;;;;;5089555;28;20024;-41
2021/06/28 01:27:52;;;;;;;7.80;7.10;;;18.50;99.90;;;;;;5082583;28;20389;-41
2021/06/28 01:30:21;;;;;;;7.72;6.95;;;18.50;99.90;;;;;;5087707;28;20024;-41
2021/06/28 01:32:48;;;;;;;9.23;7.28;;;18.50;99.90;;;;;;5083575;28;20036;-41
2021/06/28 01:35:15;;;;;;;8.77;7.38;;;18.50;99.90;;;;;;5087730;28;20028;-41
2021/06/28 01:37:41;;;;;;;10.65;8.32;;;18.50;99.90;;;;;;5078547;28;20410;-41
2021/06/28 01:40:09;;;;;;;7.47;6.72;;;18.50;99.90;;;;;;5067493;28;20028;-41
2021/06/28 01:42:35;;;;;;;8.18;6.93;;;18.50;99.90;;;;;;5067330;28;20029;-41
2021/06/28 01:45:06;;;;;;;7.03;6.32;;;18.50;99.90;;;;;;5084585;28;20501;-41
2021/06/28 01:47:31;;;;;;;7.22;6.25;;;18.50;99.90;;;;;;5088999;28;20154;-41
2021/06/28 01:49:57;;;;;;;6.85;6.13;;;18.50;99.90;;;;;;5088447;28;20119;-41
2021/06/28 01:52:22;;;;;;;8.32;6.13;;;18.50;99.90;;;;;;5084449;28;20098;-41
2021/06/28 01:54:48;;;;;;;6.43;5.82;;;18.60;99.90;;;;;;5088887;28;20169;-41
2021/06/28 01:57:13;;;;;;;7.78;5.60;;;18.60;99.90;;;;;;5084228;28;20638;-42
2021/06/28 01:59:39;;;;;;;7.10;5.78;;;18.60;99.90;;;;;;5068381;28;20046;-42
2021/06/28 02:02:06;;;;;;;6.90;6.20;;;18.60;99.90;;;;;;5084803;28;20039;-42
2021/06/28 02:04:32;;;;;;;7.07;5.40;;;18.60;99.90;;;;;;5087284;28;20481;-42
2021/06/28 02:06:59;;;;;;;8.02;6.22;;;18.70;99.90;;;;;;5084647;28;20024;-42
2021/06/28 02:09:28;;;;;;;7.28;5.82;;;18.70;99.90;;;;;;5065415;28;20306;-42
2021/06/28 02:11:54;;;;;;;5.60;5.03;;;18.70;99.90;;;;;;5067292;28;20039;-42
2021/06/28 02:14:19;;;;;;;8.80;5.47;;;18.70;99.90;;;;;;5080215;28;20372;-42
2021/06/28 02:16:46;;;;;;;7.22;5.53;;;18.70;99.90;;;;;;5088424;28;20032;-43
2021/06/28 02:19:16;;;;;;;7.82;5.93;;;18.60;99.90;;;;;;5080867;28;20032;-42
2021/06/28 02:21:44;;;;;;;6.90;5.70;;;18.60;99.90;;;;;;5088560;28;20392;-42
2021/06/28 02:24:11;;;;;;;7.97;5.60;;;18.70;99.90;;;;;;5082974;28;20063;-42
2021/06/28 02:26:38;;;;;;;6.03;5.30;;;18.70;99.90;;;;;;5082461;28;20028;-42
2021/06/28 02:29:04;;;;;;;8.15;5.95;;;18.60;99.90;;;;;;5087247;28;20032;-42
2021/06/28 02:31:29;;;;;;;5.75;5.18;;;18.60;99.90;;;;;;5091519;28;20036;-42
2021/06/28 02:33:56;;;;;;;6.28;5.68;;;18.60;99.90;;;;;;5084494;28;20385;-41
2021/06/28 02:36:23;;;;;;;6.05;5.35;;;18.60;99.90;;;;;;5084159;28;20612;-42
2021/06/28 02:38:50;;;;;;;6.43;5.72;;;18.60;99.90;;;;;;5088316;28;20111;-41
2021/06/28 02:41:17;;;;;;;9.00;5.75;;;18.60;99.90;;;;;;5091368;28;20043;-41
2021/06/28 02:43:43;;;;;;;6.25;5.30;;;18.60;99.90;;;;;;5081927;28;20020;-41
2021/06/28 02:46:10;;;;;;;11.98;6.43;;;18.70;99.90;;;;;;5083985;28;20067;-41
2021/06/28 02:48:36;;;;;;;6.68;5.80;;;18.60;99.90;;;;;;5072061;28;20382;-41
2021/06/28 02:51:03;;;;;;;6.45;5.63;;;18.60;99.90;;;;;;5071823;28;20020;-41
2021/06/28 02:53:28;;;;;;;7.32;6.20;;;18.60;99.90;;;;;;5084644;28;20055;-41
2021/06/28 02:55:54;;;;;;;7.07;5.47;;;18.60;99.90;;;;;;5076233;28;20024;-41
2021/06/28 02:58:20;;;;;;;6.28;5.40;;;18.60;99.90;;;;;;5076197;28;20083;-41
2021/06/28 03:00:46;;;;;;;7.05;5.90;;;18.60;99.90;;;;;;5100261;28;20089;-41
2021/06/28 03:03:13;;;;;;;7.95;6.25;;;18.60;99.90;;;;;;5091360;28;20113;-41
2021/06/28 03:05:39;;;;;;;6.75;5.68;;;18.60;99.90;;;;;;5102934;28;20063;-41
2021/06/28 03:08:06;;;;;;;7.78;5.93;;;18.60;99.90;;;;;;5092175;28;20080;-41
2021/06/28 03:10:33;;;;;;;6.20;5.60;;;18.60;99.90;;;;;;5090781;28;20028;-42
2021/06/28 03:12:59;;;;;;;6.43;5.45;;;18.60;99.90;;;;;;5082224;28;20059;-41
2021/06/28 03:15:25;;;;;;;7.10;6.07;;;18.60;99.90;;;;;;5091029;28;20492;-41
2021/06/28 03:17:50;;;;;;;7.00;6.30;;;18.60;99.90;;;;;;5086965;28;20017;-41
2021/06/28 03:20:17;;;;;;;10.63;7.07;;;18.60;99.90;;;;;;5091423;28;20110;-41
2021/06/28 03:22:44;;;;;;;6.75;6.05;;;18.60;99.90;;;;;;5082375;28;20024;-41
2021/06/28 03:25:12;;;;;;;8.73;6.75;;;18.60;99.90;;;;;;5086314;28;20063;-42
2021/06/28 03:27:39;;;;;;;8.38;6.63;;;18.70;99.90;;;;;;5084641;28;20409;-42
2021/06/28 03:30:07;;;;;;;11.02;6.82;;;18.70;99.90;;;;;;5079985;28;20028;-42
2021/06/28 03:32:33;;;;;;;7.93;6.93;;;18.80;99.90;;;;;;5076653;28;20102;-42
2021/06/28 03:34:58;;;;;;;7.30;6.40;;;18.80;99.90;;;;;;5081480;28;20146;-42
2021/06/28 03:37:24;;;;;;;9.23;6.60;;;18.80;99.90;;;;;;5085473;28;20312;-42
2021/06/28 03:39:50;;;;;;;9.07;7.25;;;18.80;99.90;;;;;;5072000;28;20017;-42
2021/06/28 03:42:16;;;;;;;7.70;6.68;;;18.80;99.90;;;;;;5085837;28;20027;-42
2021/06/28 03:44:42;;;;;;;7.78;6.93;;;18.80;99.90;;;;;;5072579;28;20316;-41
2021/06/28 03:47:07;;;;;;;7.93;6.80;;;18.80;99.90;;;;;;5106464;28;20393;-41
2021/06/28 03:49:33;;;;;;;7.32;6.38;;;18.80;99.90;;;;;;5109759;28;20503;-42
2021/06/28 03:51:59;;;;;;;7.95;7.15;;;18.80;99.90;;;;;;5088806;28;20107;-42
2021/06/28 03:54:24;;;;;;;9.07;6.82;;;18.80;99.90;;;;;;5081805;28;20024;-41
2021/06/28 03:56:50;;;;;;;7.55;6.80;;;18.80;99.90;;;;;;5090940;28;20028;-41
2021/06/28 03:59:16;;;;;;;8.23;7.28;;;18.70;99.90;;;;;;5085010;28;20024;-41
2021/06/28 04:01:41;;;;;;;9.20;7.55;;;18.70;99.90;;;;;;5092040;28;20488;-41
2021/06/28 04:04:07;;;;;;;9.32;8.05;;;18.70;99.90;;;;;;5085597;28;20042;-41
2021/06/28 04:06:33;;;;;;;9.48;6.95;;;18.70;99.90;;;;;;5080126;28;20102;-42
2021/06/28 04:08:58;;;;;;;9.30;7.63;;;18.70;99.90;;;;;;5076707;28;20029;-42
2021/06/28 04:11:24;;;;;;;9.52;7.38;;;18.70;99.90;;;;;;5073884;28;20028;-42
2021/06/28 04:13:49;;;;;;;9.45;7.40;;;18.70;99.90;;;;;;5072555;28;20020;-42
2021/06/28 04:16:15;;;;;;;8.98;8.07;;;18.70;99.90;;;;;;5091469;28;20034;-42
2021/06/28 04:18:41;;;;;;;9.45;7.78;;;18.70;99.90;;;;;;5106933;28;20381;-42
2021/06/28 04:21:06;;;;;;;8.88;7.97;;;18.70;99.90;;;;;;5073164;28;20047;-43
2021/06/28 04:23:32;;;;;;;11.00;8.52;;;18.70;99.90;;;;;;5076981;28;20028;-42
2021/06/28 04:25:58;;;;;;;11.52;7.93;;;18.70;99.90;;;;;;5073761;28;20024;-43
2021/06/28 04:28:23;;;;;;;10.73;8.55;;;18.70;99.90;;;;;;5080839;28;20019;-43
2021/06/28 04:30:49;;;;;;;8.10;7.30;;;18.70;99.90;;;;;;5076604;28;20025;-43
2021/06/28 04:33:14;;;;;;;9.93;8.73;;;18.80;99.90;;;;;;5081469;28;20107;-42
2021/06/28 04:35:40;;;;;;;14.40;8.75;;;18.70;99.90;;;;;;5078755;28;20378;-42
2021/06/28 04:38:06;;;;;;;12.05;8.02;;;18.80;99.90;;;;;;5079746;28;20588;-43
2021/06/28 04:40:32;;;;;;;8.55;7.15;;;18.80;99.90;;;;;;5092677;28;20150;-42
2021/06/28 04:42:58;;;;;;;10.40;8.57;;;18.80;99.90;;;;;;5099521;28;20550;-42
2021/06/28 04:45:25;;;;;;;11.50;8.50;;;18.90;99.90;;;;;;5087795;28;20115;-43
2021/06/28 04:47:51;;;;;;;10.82;7.90;;;18.90;99.90;;;;;;5099462;28;20473;-42
2021/06/28 04:50:17;;;;;;;11.65;8.85;;;18.90;99.90;;;;;;5079630;28;20024;-42
2021/06/28 04:52:43;;;;;;;8.77;7.82;;;18.90;99.90;;;;;;5089719;28;20072;-42
2021/06/28 04:55:13;;;;;;;9.90;8.25;;;18.90;99.90;;;;;;5074904;28;20048;-42
2021/06/28 04:57:38;;;;;;;9.55;7.95;;;18.90;99.90;;;;;;5090881;28;20023;-42
2021/06/28 05:00:06;;;;;;;8.88;7.55;;;19.00;99.90;;;;;;5083562;28;20302;-42
2021/06/28 05:02:31;;;;;;;8.65;7.70;;;19.00;99.90;;;;;;5077037;28;20032;-42
2021/06/28 05:04:57;;;;;;;9.57;7.78;;;19.10;99.90;;;;;;5080388;28;20036;-42
2021/06/28 05:07:22;;;;;;;10.77;7.85;;;19.10;99.90;;;;;;5075491;28;20023;-42
2021/06/28 05:09:48;;;;;;;11.02;8.75;;;19.20;99.90;;;;;;5074294;28;20111;-42
2021/06/28 05:12:14;;;;;;;11.05;7.93;;;19.30;99.90;;;;;;5075360;28;20032;-42
2021/06/28 05:14:40;;;;;;;12.63;8.00;;;19.30;99.90;;;;;;5070419;28;20529;-41
2021/06/28 05:17:07;;;;;;;10.18;8.05;;;19.40;99.90;;;;;;5084304;28;20024;-41
2021/06/28 05:19:32;;;;;;;9.52;7.85;;;19.50;99.90;;;;;;5093278;28;20139;-42
2021/06/28 05:21:58;;;;;;;10.85;8.02;;;19.50;99.90;;;;;;5080306;28;20103;-41
2021/06/28 05:24:23;;;;;;;9.85;7.55;;;19.60;99.90;;;;;;5081668;28;20397;-42
2021/06/28 05:26:49;;;;;;;11.07;8.43;;;19.70;99.90;;;;;;5088108;28;20024;-41
2021/06/28 05:29:14;;;;;;;12.68;8.05;;;19.70;99.90;;;;;;5081817;28;20043;-42
2021/06/28 05:31:40;;;;;;;13.68;8.00;;;19.70;99.90;;;;;;5082490;28;20213;-41
2021/06/28 05:34:06;;;;;;;9.10;7.75;;;19.80;99.90;;;;;;5071664;28;20406;-42
2021/06/28 05:36:33;;;;;;;13.68;7.60;;;19.90;99.90;;;;;;5080634;28;20431;-41
2021/06/28 05:38:58;;;;;;;12.02;7.65;;;20.00;99.90;;;;;;5073979;28;20036;-42
2021/06/28 05:41:24;;;;;;;12.43;8.25;;;20.00;99.90;;;;;;5086822;28;20046;-42
2021/06/28 05:43:49;;;;;;;10.45;7.35;;;20.10;99.90;;;;;;5074861;28;20091;-42
2021/06/28 05:46:15;;;;;;;10.18;7.28;;;20.20;99.90;;;;;;5074974;28;20424;-42
2021/06/28 05:48:40;;;;;;;10.70;7.93;;;20.30;99.90;;;;;;5079499;28;20046;-42
2021/06/28 05:51:07;;;;;;;8.57;7.53;;;20.40;99.90;;;;;;5076340;28;20028;-41
2021/06/28 05:53:33;;;;;;;10.02;7.55;;;20.50;99.90;;;;;;5075949;28;20032;-42
2021/06/28 05:55:59;;;;;;;8.30;6.70;;;20.60;99.90;;;;;;5075684;28;20478;-42
2021/06/28 05:58:27;;;;;;;9.07;7.45;;;20.60;99.90;;;;;;5076915;28;20023;-42
2021/06/28 06:00:54;;;;;;;9.10;7.32;;;20.70;99.90;;;;;;5075355;28;20021;-42
2021/06/28 06:03:20;;;;;;;10.88;7.93;;;20.70;99.90;;;;;;5104175;28;20032;-43
2021/06/28 06:05:46;;;;;;;10.45;8.05;;;20.90;99.90;;;;;;5074228;28;20512;-42
2021/06/28 06:08:12;;;;;;;8.98;7.55;;;21.00;99.90;;;;;;5073103;28;20028;-42
2021/06/28 06:10:37;;;;;;;9.77;7.38;;;21.10;99.90;;;;;;5072799;28;20027;-43
2021/06/28 06:13:03;;;;;;;11.40;7.72;;;21.30;99.90;;;;;;5074846;28;20028;-43
2021/06/28 06:15:30;;;;;;;9.18;7.18;;;21.40;99.90;;;;;;5086800;28;20024;-43
2021/06/28 06:17:55;;;;;;;11.63;7.30;;;21.50;99.90;;;;;;5071901;28;20093;-42
2021/06/28 06:20:21;;;;;;;14.10;7.30;;;21.70;99.90;;;;;;5073833;28;20061;-42
2021/06/28 06:22:47;;;;;;;10.05;7.43;;;21.90;99.90;;;;;;5071671;28;20036;-45
2021/06/28 06:25:13;;;;;;;10.70;7.05;;;21.90;99.90;;;;;;5073147;28;20029;-42
2021/06/28 06:27:39;;;;;;;10.10;6.75;;;22.00;99.90;;;;;;5070425;28;20501;-42
2021/06/28 06:30:05;;;;;;;9.77;6.88;;;22.10;99.90;;;;;;5072470;28;20043;-43
2021/06/28 06:32:31;;;;;;;13.95;7.40;;;22.20;99.90;;;;;;5075214;28;20032;-41
2021/06/28 06:34:57;;;;;;;10.38;6.97;;;22.20;99.90;;;;;;5073239;28;20205;-42
2021/06/28 06:37:22;;;;;;;13.38;6.93;;;22.30;99.90;;;;;;5082793;28;20021;-42
2021/06/28 06:39:48;;;;;;;8.57;6.95;;;22.40;99.90;;;;;;5069169;28;20074;-42
2021/06/28 06:42:14;;;;;;;10.40;6.90;;;22.40;99.90;;;;;;5069491;28;20398;-42
2021/06/28 06:44:39;;;;;;;9.50;6.57;;;22.50;99.90;;;;;;5075449;28;20020;-41
2021/06/28 06:47:05;;;;;;;11.20;6.38;;;22.60;99.90;;;;;;5075488;28;20043;-42
2021/06/28 06:49:30;;;;;;;10.13;6.47;;;22.50;99.90;;;;;;5073441;28;20367;-42
2021/06/28 06:51:56;;;;;;;11.13;6.32;;;22.50;99.90;;;;;;5073620;28;20253;-42
2021/06/28 06:54:21;;;;;;;12.50;6.63;;;22.70;99.90;;;;;;5072222;28;20032;-42
2021/06/28 06:56:47;;;;;;;9.48;6.25;;;22.80;99.90;;;;;;5071538;28;20082;-43
2021/06/28 06:59:13;;;;;;;13.80;6.55;;;22.80;99.90;;;;;;5075272;28;20025;-42
2021/06/28 07:01:40;;;;;;;7.15;6.32;;;22.70;99.90;;;;;;5072636;28;20394;-43
2021/06/28 07:04:06;;;;;;;7.97;5.80;;;23.00;99.90;;;;;;5075931;28;20050;-42
2021/06/28 07:06:32;;;;;;;9.10;6.03;;;23.20;99.90;;;;;;5074276;28;20299;-43
2021/06/28 07:08:57;;;;;;;7.43;5.05;;;23.40;99.90;;;;;;5078712;28;20111;-42
2021/06/28 07:11:25;;;;;;;7.68;5.55;;;23.70;99.90;;;;;;5074969;28;20047;-42
2021/06/28 07:13:51;;;;;;;7.50;5.60;;;23.90;99.90;;;;;;5073564;28;20016;-41
2021/06/28 07:16:17;;;;;;;6.63;5.05;;;24.10;99.90;;;;;;5079609;28;20032;-42
2021/06/28 07:18:44;;;;;;;8.43;5.70;;;24.20;99.40;;;;;;5080358;28;20028;-43
2021/06/28 07:21:09;;;;;;;7.22;5.40;;;24.40;98.60;;;;;;5074297;28;20021;-42
2021/06/28 07:23:35;;;;;;;8.00;5.65;;;24.50;97.80;;;;;;5079972;28;20386;-42
2021/06/28 07:26:02;;;;;;;8.02;5.90;;;24.60;98.10;;;;;;5076493;28;20024;-43
2021/06/28 07:28:32;;;;;;;12.27;5.53;;;24.60;97.50;;;;;;5077705;28;20560;-42
2021/06/28 07:30:58;;;;;;;10.98;5.50;;;24.70;97.60;;;;;;5078555;28;20056;-43
2021/06/28 07:33:28;;;;;;;9.75;5.70;;;24.80;97.50;;;;;;5081077;28;20072;-43
2021/06/28 07:35:54;;;;;;;7.78;5.65;;;25.00;97.60;;;;;;5079378;28;20016;-42
2021/06/28 07:38:20;;;;;;;9.88;6.72;;;25.20;97.00;;;;;;5078754;28;20023;-44
2021/06/28 07:40:46;;;;;;;7.75;5.88;;;25.20;97.00;;;;;;5078826;28;20052;-42
2021/06/28 07:43:12;;;;;;;6.50;5.30;;;25.40;97.10;;;;;;5088531;28;20051;-42
2021/06/28 07:45:37;;;;;;;9.43;5.60;;;25.60;96.20;;;;;;5081324;28;20465;-44
2021/06/28 07:48:03;;;;;;;12.50;6.15;;;25.70;96.40;;;;;;5081148;28;20044;-43
2021/06/28 07:50:29;;;;;;;10.95;5.78;;;25.90;95.80;;;;;;5080055;28;20036;-42
2021/06/28 07:52:55;;;;;;;8.20;6.07;;;26.10;95.40;;;;;;5077116;28;20083;-42
2021/06/28 07:55:21;;;;;;;8.00;5.68;;;26.20;94.80;;;;;;5079857;28;20032;-42
2021/06/28 07:57:46;;;;;;;7.75;6.25;;;26.30;94.50;;;;;;5083091;28;20107;-42
2021/06/28 08:00:15;;;;;;;10.35;5.18;;;26.30;94.30;;;;;;5077330;28;20095;-43
2021/06/28 08:02:42;;;;;;;11.75;5.88;;;26.40;93.30;;;;;;5076063;28;20199;-42
2021/06/28 08:05:08;;;;;;;6.95;5.30;;;26.50;93.70;;;;;;5075406;28;20033;-42
2021/06/28 08:07:34;;;;;;;7.47;5.70;;;26.60;93.40;;;;;;5074545;28;20044;-44
2021/06/28 08:10:00;;;;;;;7.65;5.78;;;26.80;93.30;;;;;;5074267;28;20032;-43
2021/06/28 08:12:25;;;;;;;7.03;5.15;;;27.10;92.90;;;;;;5074803;28;20034;-42
2021/06/28 08:14:51;;;;;;;6.25;5.25;;;27.40;92.60;;;;;;5078987;28;20039;-44
2021/06/28 08:17:16;;;;;;;7.90;5.22;;;27.90;91.70;;;;;;5077199;28;20115;-42
2021/06/28 08:19:44;;;;;;;7.00;4.60;;;29.10;88.80;;;;;;5078745;28;20593;-42
2021/06/28 08:22:10;;;;;;;14.35;4.70;;;29.90;83.10;;;;;;5080038;28;20127;-43
2021/06/28 08:24:36;;;;;;;5.82;4.30;;;30.60;81.60;;;;;;5082147;28;20095;-43
2021/06/28 08:27:02;;;;;;;7.85;4.20;;;31.70;77.20;;;;;;5090120;28;20675;-43
2021/06/28 08:29:28;;;;;;;4.82;3.95;;;32.50;69.20;;;;;;5084576;28;20027;-43
2021/06/28 08:31:53;;;;;;;6.03;3.65;;;33.20;69.40;;;;;;5093104;28;20032;-46
2021/06/28 08:34:19;;;;;;;7.22;4.38;;;33.40;65.40;;;;;;5080377;28;20025;-46
2021/06/28 08:36:46;;;;;;;4.95;3.90;;;34.40;61.20;;;;;;5080100;28;20024;-44
2021/06/28 08:39:13;;;;;;;4.30;3.90;;;35.40;57.50;;;;;;5078126;28;20023;-44
2021/06/28 08:41:42;;;;;;;7.53;3.35;;;36.10;55.50;;;;;;5080209;28;20032;-45
2021/06/28 08:44:10;;;;;;;5.90;3.70;;;36.60;51.20;;;;;;5079714;28;20542;-45
2021/06/28 08:46:37;;;;;;;7.95;3.85;;;37.30;50.60;;;;;;5078746;28;20397;-44
2021/06/28 08:49:02;;;;;;;4.05;3.15;;;37.20;46.90;;;;;;5081167;28;20029;-44
2021/06/28 08:51:29;;;;;;;5.10;2.90;;;37.70;44.10;;;;;;5084770;28;20022;-45
2021/06/28 08:53:56;;;;;;;4.32;3.33;;;37.20;42.70;;;;;;5090112;28;20430;-45
2021/06/28 08:56:22;;;;;;;5.75;3.30;;;37.40;43.20;;;;;;5086126;28;20022;-44
2021/06/28 08:58:49;;;;;;;5.32;3.83;;;37.00;42.90;;;;;;5077873;28;20027;-43
2021/06/28 09:01:14;;;;;;;3.67;3.33;;;36.70;40.90;;;;;;5080134;28;20013;-44
2021/06/28 09:03:40;;;;;;;4.68;2.90;;;36.50;42.30;;;;;;5081212;28;20650;-43
2021/06/28 09:06:14;;;;;;;6.18;3.05;;;36.40;44.30;;;;;;5082020;28;20617;-44
2021/06/28 09:08:57;;;;;;;3.42;2.90;;;36.20;40.70;;;;;;5079809;28;20040;-45
2021/06/28 09:11:22;;;;;;;4.57;3.53;;;37.80;41.80;;;;;;5081775;28;20082;-44
2021/06/28 09:13:50;;;;;;;6.97;3.08;;;38.20;40.80;;;;;;5080285;28;20015;-46
2021/06/28 09:16:23;;;;;;;4.97;3.25;;;39.30;41.40;;;;;;5082360;28;20016;-44
2021/06/28 09:19:04;;;;;;;3.42;3.03;;;40.30;39.00;;;;;;5080780;28;20032;-43
2021/06/28 09:21:40;;;;;;;4.53;3.10;;;40.90;38.20;;;;;;5080202;28;20073;-43
2021/06/28 09:24:25;;;;;;;5.47;3.30;;;40.80;38.60;;;;;;5080750;28;20103;-44
2021/06/28 09:26:53;;;;;;;4.50;3.42;;;40.30;38.30;;;;;;5076620;28;20021;-44
2021/06/28 09:29:32;;;;;;;5.78;3.88;;;40.20;37.80;;;;;;5082231;28;20028;-44
2021/06/28 09:31:57;;;;;;;3.85;3.55;;;39.70;38.90;;;;;;5075763;28;20020;-44
2021/06/28 09:34:24;;;;;;;3.90;3.35;;;40.40;38.80;;;;;;5079344;28;20482;-43
2021/06/28 09:36:54;;;;;;;3.75;3.45;;;40.60;37.90;;;;;;5082856;28;20035;-44
2021/06/28 09:39:30;;;;;;;7.53;4.35;;;40.10;38.70;;;;;;5084473;28;20485;-44
2021/06/28 09:42:07;;;;;;;5.72;3.90;;;39.50;37.80;;;;;;5085148;28;20397;-44
2021/06/28 09:44:36;;;;;;;4.80;4.25;;;40.40;36.20;;;;;;5081512;28;20016;-44
2021/06/28 09:47:15;;;;;;;4.60;3.90;;;39.60;37.10;;;;;;5080067;28;20486;-43
2021/06/28 09:49:58;;;;;;;4.82;4.32;;;37.90;37.90;;;;;;5079816;28;20112;-46
2021/06/28 09:52:32;;;;;;;5.60;4.32;;;38.00;40.20;;;;;;5081213;28;20020;-45
2021/06/28 09:55:39;;;;;;;4.95;4.53;;;39.50;39.40;;;;;;5078317;28;20024;-43
2021/06/28 09:58:14;;;;;;;4.57;4.20;;;37.70;39.80;;;;;;5077050;28;20047;-44
2021/06/28 10:00:43;;;;;;;4.95;3.90;;;38.20;39.80;;;;;;5077419;28;20473;-44
2021/06/28 10:03:29;;;;;;;8.45;4.65;;;39.50;39.60;;;;;;5079643;28;20082;-43
2021/06/28 10:06:11;;;;;;;5.15;3.88;;;39.40;38.40;;;;;;5077773;28;20086;-43
2021/06/28 10:08:39;;;;;;;6.57;4.28;;;39.90;39.90;;;;;;5076352;28;20026;-45
2021/06/28 10:11:11;;;;;;;6.68;4.10;;;40.20;38.40;;;;;;5076901;28;20096;-45
2021/06/28 10:13:37;;;;;;;6.63;4.20;;;39.70;38.50;;;;;;5073619;28;20032;-43
2021/06/28 10:16:04;;;;;;;5.30;4.05;;;40.10;38.60;;;;;;5081426;28;20032;-43
2021/06/28 10:18:29;;;;;;;4.72;4.13;;;40.60;38.80;;;;;;5078897;28;20080;-43
2021/06/28 10:20:55;;;;;;;4.85;4.35;;;40.70;39.40;;;;;;5077113;28;20028;-43
2021/06/28 10:23:21;;;;;;;4.50;3.90;;;40.10;38.50;;;;;;5078087;28;20031;-43
2021/06/28 10:25:46;;;;;;;7.18;4.30;;;38.30;38.90;;;;;;5076822;28;20028;-43
2021/06/28 10:28:12;;;;;;;4.88;3.90;;;37.30;40.70;;;;;;5067125;28;20151;-43
2021/06/28 10:30:37;;;;;;;7.25;4.55;;;38.40;40.60;;;;;;5083229;28;20028;-44
2021/06/28 10:33:08;;;;;;;6.43;4.15;;;39.70;39.40;;;;;;5095141;28;20084;-43
2021/06/28 10:35:38;;;;;;;5.90;4.78;;;39.80;39.00;;;;;;5087034;28;20032;-43
2021/06/28 10:38:06;;;;;;;10.05;9.00;;;40.70;38.20;;;;;;5077712;28;20281;-44
2021/06/28 10:40:54;;;;;;;7.28;4.13;;;39.90;39.20;;;;;;5083700;28;20031;-44
2021/06/28 10:43:23;;;;;;;7.38;4.88;;;39.80;38.30;;;;;;5078993;28;20066;-44
2021/06/28 10:45:49;;;;;;;5.03;4.57;;;40.20;37.50;;;;;;5087611;28;20462;-45
2021/06/28 10:48:17;;;;;;;5.22;4.68;;;40.70;38.70;;;;;;5086539;28;20112;-44
2021/06/28 10:51:05;;;;;;;4.82;4.43;;;40.80;38.00;;;;;;5087048;28;20662;-43
2021/06/28 10:53:33;;;;;;;5.00;4.50;;;41.10;39.40;;;;;;5071798;28;20028;-43
2021/06/28 10:56:25;;;;;;;5.33;4.80;;;41.80;38.50;;;;;;5072253;28;20111;-43
2021/06/28 10:58:56;;;;;;;4.72;4.32;;;42.30;37.20;;;;;;5073784;28;20024;-45
2021/06/28 11:01:40;;;;;;;10.50;4.85;;;42.10;37.00;;;;;;5082037;28;20063;-43
2021/06/28 11:04:27;;;;;;;5.03;4.45;;;41.60;37.30;;;;;;5099362;28;20135;-42
2021/06/28 11:06:52;;;;;;;4.90;4.43;;;42.30;38.00;;;;;;5071148;28;20034;-42
2021/06/28 11:09:36;;;;;;;5.90;4.55;;;40.90;37.50;;;;;;5089240;28;20032;-42
2021/06/28 11:12:24;;;;;;;5.25;4.18;;;40.20;39.30;;;;;;5080777;28;20020;-43
2021/06/28 11:15:14;;;;;;;5.97;4.93;;;40.90;37.80;;;;;;5082725;28;20016;-44
2021/06/28 11:17:50;;;;;;;6.65;4.20;;;40.30;38.90;;;;;;5081004;28;20206;-45
2021/06/28 11:20:24;;;;;;;5.13;4.72;;;41.30;38.10;;;;;;5076064;28;20028;-45
2021/06/28 11:23:03;;;;;;;5.13;4.30;;;40.70;39.40;;;;;;5082037;28;20508;-43
2021/06/28 11:25:54;;;;;;;5.13;4.63;;;39.80;39.60;;;;;;5077460;28;20072;-45
2021/06/28 11:28:27;;;;;;;4.60;4.10;;;39.00;40.30;;;;;;5086384;28;20031;-46
2021/06/28 11:30:59;;;;;;;5.40;4.90;;;39.70;39.30;;;;;;5079895;28;20029;-44
2021/06/28 11:33:54;;;;;;;5.47;4.97;;;39.80;40.40;;;;;;5082817;28;20054;-43
2021/06/28 11:36:22;;;;;;;5.43;5.00;;;38.30;39.80;;;;;;5079392;28;20100;-44
2021/06/28 11:38:48;;;;;;;5.85;4.93;;;36.80;42.30;;;;;;5078514;28;20090;-43
2021/06/28 11:41:16;;;;;;;5.43;4.95;;;36.90;42.70;;;;;;5085059;28;20437;-44
2021/06/28 11:43:46;;;;;;;6.05;4.97;;;37.10;41.50;;;;;;5099711;28;20532;-44
2021/06/28 11:46:16;;;;;;;4.78;4.38;;;38.30;41.90;;;;;;5091735;28;20039;-44
2021/06/28 11:48:49;;;;;;;4.43;4.13;;;39.00;42.20;;;;;;5091526;28;20024;-44
2021/06/28 11:51:15;;;;;;;4.15;3.83;;;39.40;39.00;;;;;;5087132;28;20029;-45
2021/06/28 11:53:42;;;;;;;5.18;4.47;;;39.20;39.90;;;;;;5084673;28;20507;-44
2021/06/28 11:56:20;;;;;;;5.05;4.40;;;39.00;40.00;;;;;;5086822;28;20067;-45
2021/06/28 11:58:54;;;;;;;5.22;4.72;;;38.70;41.10;;;;;;5071550;28;20044;-44
2021/06/28 12:01:22;;;;;;;5.22;4.57;;;37.70;41.00;;;;;;5083327;28;20020;-45
2021/06/28 12:03:48;;;;;;;6.45;5.18;;;38.00;42.60;;;;;;5096826;28;20385;-45
2021/06/28 12:06:13;;;;;;;5.00;4.60;;;38.20;43.10;;;;;;5094288;28;20039;-44
2021/06/28 12:08:39;;;;;;;5.28;4.75;;;37.90;42.20;;;;;;5086514;28;20105;-45
2021/06/28 12:11:05;;;;;;;17.45;14.57;;;37.30;43.00;;;;;;5076151;28;20066;-44
2021/06/28 12:13:36;;;;;;;5.18;4.65;;;37.00;42.40;;;;;;5069135;28;20070;-44
2021/06/28 12:16:16;;;;;;;4.88;4.47;;;36.60;42.40;;;;;;5075008;28;20020;-45
2021/06/28 12:18:41;;;;;;;5.57;4.38;;;35.70;42.70;;;;;;5076570;28;20016;-46
2021/06/28 12:21:07;;;;;;;4.72;4.32;;;34.40;43.50;;;;;;5079584;28;20040;-44
2021/06/28 12:23:33;;;;;;;4.97;4.30;;;34.20;45.40;;;;;;5077579;28;20044;-44
2021/06/28 12:26:09;;;;;;;6.28;4.75;;;34.50;46.50;;;;;;5076232;28;20401;-44
2021/06/28 12:28:35;;;;;;;6.25;4.68;;;34.00;45.30;;;;;;5077288;28;20020;-44
2021/06/28 12:31:00;;;;;;;4.78;4.38;;;34.20;45.40;;;;;;5076384;28;20079;-46
2021/06/28 12:33:26;;;;;;;5.28;4.85;;;34.30;46.30;;;;;;5085824;28;20254;-44
2021/06/28 12:35:58;;;;;;;6.75;4.80;;;34.70;45.00;;;;;;5084463;28;20474;-45
2021/06/28 12:38:24;;;;;;;5.50;4.72;;;34.30;45.30;;;;;;5084834;28;20527;-44
2021/06/28 12:40:50;;;;;;;5.40;5.00;;;34.30;49.70;;;;;;5080904;28;20063;-45
2021/06/28 12:43:18;;;;;;;7.15;4.97;;;34.80;46.90;;;;;;5081614;28;20093;-44
2021/06/28 12:45:46;;;;;;;4.90;4.40;;;34.10;45.70;;;;;;5076779;28;20021;-47
2021/06/28 12:48:24;;;;;;;5.82;5.10;;;34.10;46.90;;;;;;5077887;28;20078;-44
2021/06/28 12:51:01;;;;;;;6.28;4.88;;;34.70;46.70;;;;;;5082252;28;20526;-43